sensor_id;sensor_type;location;lat;lon;timestamp;P1;P2;P0
80555;PMS5003;69889;55.040;73.076;2023-07-31T00:02:17;16.00;14.00;9.00
80555;PMS5003;69889;55.040;73.076;2023-07-31T00:04:45;17.00;15.00;9.00
80555;PMS5003;69889;55.040;73.076;2023-07-31T00:07:12;17.00;15.00;10.00
80555;PMS5003;69889;55.040;73.076;2023-07-31T00:09:38;20.00;16.75;9.00
80555;PMS5003;69889;55.040;73.076;2023-07-31T00:12:06;16.75;15.00;10.00
80555;PMS5003;69889;55.040;73.076;2023-07-31T00:14:33;18.00;16.00;10.00
80555;PMS5003;69889;55.040;73.076;2023-07-31T00:17:00;17.25;15.00;10.00
80555;PMS5003;69889;55.040;73.076;2023-07-31T00:19:26;16.00;14.00;9.00
80555;PMS5003;69889;55.040;73.076;2023-07-31T00:21:53;17.25;15.25;9.25
80555;PMS5003;69889;55.040;73.076;2023-07-31T00:24:19;17.75;15.00;10.00
80555;PMS5003;69889;55.040;73.076;2023-07-31T00:26:46;17.25;15.00;10.00
80555;PMS5003;69889;55.040;73.076;2023-07-31T00:29:12;17.00;15.00;9.00
80555;PMS5003;69889;55.040;73.076;2023-07-31T00:31:39;16.00;14.00;10.00
80555;PMS5003;69889;55.040;73.076;2023-07-31T00:34:05;18.00;16.00;11.25
80555;PMS5003;69889;55.040;73.076;2023-07-31T00:36:35;17.00;14.50;9.00
80555;PMS5003;69889;55.040;73.076;2023-07-31T00:39:02;19.00;17.00;10.00
80555;PMS5003;69889;55.040;73.076;2023-07-31T00:41:28;17.00;14.00;9.00
80555;PMS5003;69889;55.040;73.076;2023-07-31T00:43:55;18.00;16.00;10.00
80555;PMS5003;69889;55.040;73.076;2023-07-31T00:46:22;19.00;16.00;11.00
80555;PMS5003;69889;55.040;73.076;2023-07-31T00:48:48;19.00;17.00;9.50
80555;PMS5003;69889;55.040;73.076;2023-07-31T00:51:15;18.25;15.50;10.00
80555;PMS5003;69889;55.040;73.076;2023-07-31T00:53:42;16.75;14.50;9.00
80555;PMS5003;69889;55.040;73.076;2023-07-31T00:56:09;17.25;15.25;10.00
80555;PMS5003;69889;55.040;73.076;2023-07-31T00:58:38;17.00;15.00;9.00
80555;PMS5003;69889;55.040;73.076;2023-07-31T01:01:05;18.25;16.00;10.00
80555;PMS5003;69889;55.040;73.076;2023-07-31T01:03:32;18.00;16.00;10.00
80555;PMS5003;69889;55.040;73.076;2023-07-31T01:11:09;15.00;14.00;9.00
80555;PMS5003;69889;55.040;73.076;2023-07-31T01:13:40;18.75;16.00;10.75
80555;PMS5003;69889;55.040;73.076;2023-07-31T01:16:09;19.00;17.00;11.00
80555;PMS5003;69889;55.040;73.076;2023-07-31T01:18:36;16.50;14.75;9.75
80555;PMS5003;69889;55.040;73.076;2023-07-31T01:21:03;17.00;15.00;10.00
80555;PMS5003;69889;55.040;73.076;2023-07-31T01:26:12;18.50;16.00;9.00
80555;PMS5003;69889;55.040;73.076;2023-07-31T01:29:13;17.25;15.25;10.00
80555;PMS5003;69889;55.040;73.076;2023-07-31T01:31:32;19.00;17.00;10.00
80555;PMS5003;69889;55.040;73.076;2023-07-31T01:34:00;17.25;15.00;10.00
80555;PMS5003;69889;55.040;73.076;2023-07-31T01:36:30;17.75;15.50;9.25
80555;PMS5003;69889;55.040;73.076;2023-07-31T01:39:00;17.00;15.00;10.00
80555;PMS5003;69889;55.040;73.076;2023-07-31T01:41:27;16.00;14.25;9.00
80555;PMS5003;69889;55.040;73.076;2023-07-31T01:43:54;18.00;15.00;9.00
80555;PMS5003;69889;55.040;73.076;2023-07-31T01:46:20;17.50;15.75;11.00
80555;PMS5003;69889;55.040;73.076;2023-07-31T01:48:47;17.00;15.00;9.00
80555;PMS5003;69889;55.040;73.076;2023-07-31T01:51:14;18.00;16.00;10.00
80555;PMS5003;69889;55.040;73.076;2023-07-31T01:53:41;20.00;17.00;10.00
80555;PMS5003;69889;55.040;73.076;2023-07-31T01:56:08;15.75;14.50;9.75
80555;PMS5003;69889;55.040;73.076;2023-07-31T01:58:34;16.25;14.00;10.00
80555;PMS5003;69889;55.040;73.076;2023-07-31T02:01:02;17.00;15.00;9.00
80555;PMS5003;69889;55.040;73.076;2023-07-31T02:03:28;17.00;15.50;10.50
80555;PMS5003;69889;55.040;73.076;2023-07-31T02:05:56;17.00;15.00;9.75
80555;PMS5003;69889;55.040;73.076;2023-07-31T02:08:25;16.75;15.00;9.00
80555;PMS5003;69889;55.040;73.076;2023-07-31T02:10:53;18.00;15.50;10.00
80555;PMS5003;69889;55.040;73.076;2023-07-31T02:13:20;18.00;15.00;11.00
80555;PMS5003;69889;55.040;73.076;2023-07-31T02:15:47;18.00;15.75;10.00
80555;PMS5003;69889;55.040;73.076;2023-07-31T02:18:14;19.00;17.00;12.00
80555;PMS5003;69889;55.040;73.076;2023-07-31T02:20:41;15.75;14.50;9.75
80555;PMS5003;69889;55.040;73.076;2023-07-31T02:23:08;16.75;14.75;9.00
80555;PMS5003;69889;55.040;73.076;2023-07-31T02:25:34;18.00;16.00;10.00
80555;PMS5003;69889;55.040;73.076;2023-07-31T02:28:01;19.00;17.00;9.00
80555;PMS5003;69889;55.040;73.076;2023-07-31T02:30:27;19.50;17.00;10.00
80555;PMS5003;69889;55.040;73.076;2023-07-31T02:32:54;16.00;15.00;10.00
80555;PMS5003;69889;55.040;73.076;2023-07-31T02:35:21;17.00;15.25;10.00
80555;PMS5003;69889;55.040;73.076;2023-07-31T02:37:47;17.00;16.00;11.00
80555;PMS5003;69889;55.040;73.076;2023-07-31T02:40:14;17.50;16.00;10.00
80555;PMS5003;69889;55.040;73.076;2023-07-31T02:42:40;17.00;16.00;10.00
80555;PMS5003;69889;55.040;73.076;2023-07-31T02:45:07;17.00;14.00;9.00
80555;PMS5003;69889;55.040;73.076;2023-07-31T02:47:34;20.25;17.50;11.00
80555;PMS5003;69889;55.040;73.076;2023-07-31T02:50:02;18.00;16.00;10.00
80555;PMS5003;69889;55.040;73.076;2023-07-31T02:52:28;17.00;16.00;11.00
80555;PMS5003;69889;55.040;73.076;2023-07-31T02:54:56;18.00;15.00;10.00
80555;PMS5003;69889;55.040;73.076;2023-07-31T02:57:22;19.00;17.00;11.00
80555;PMS5003;69889;55.040;73.076;2023-07-31T02:59:49;18.00;16.00;11.00
80555;PMS5003;69889;55.040;73.076;2023-07-31T03:02:16;17.50;16.50;10.00
80555;PMS5003;69889;55.040;73.076;2023-07-31T03:04:42;17.00;15.00;10.00
80555;PMS5003;69889;55.040;73.076;2023-07-31T03:07:09;17.00;16.00;10.00
80555;PMS5003;69889;55.040;73.076;2023-07-31T03:09:35;19.50;15.00;9.25
80555;PMS5003;69889;55.040;73.076;2023-07-31T03:12:02;17.75;16.00;11.00
80555;PMS5003;69889;55.040;73.076;2023-07-31T03:14:29;17.75;16.50;11.00
80555;PMS5003;69889;55.040;73.076;2023-07-31T03:16:56;17.00;16.00;10.00
80555;PMS5003;69889;55.040;73.076;2023-07-31T03:19:22;19.00;17.00;11.00
80555;PMS5003;69889;55.040;73.076;2023-07-31T03:21:49;17.00;16.00;10.00
80555;PMS5003;69889;55.040;73.076;2023-07-31T03:24:16;17.75;17.00;12.00
80555;PMS5003;69889;55.040;73.076;2023-07-31T03:26:42;20.00;18.00;11.00
80555;PMS5003;69889;55.040;73.076;2023-07-31T03:29:09;19.00;16.00;10.75
80555;PMS5003;69889;55.040;73.076;2023-07-31T03:31:36;18.25;16.00;11.00
80555;PMS5003;69889;55.040;73.076;2023-07-31T03:34:02;16.00;15.00;10.00
80555;PMS5003;69889;55.040;73.076;2023-07-31T03:36:32;17.50;16.00;11.00
80555;PMS5003;69889;55.040;73.076;2023-07-31T03:38:58;18.00;16.25;11.00
80555;PMS5003;69889;55.040;73.076;2023-07-31T03:41:25;18.00;17.25;11.25
80555;PMS5003;69889;55.040;73.076;2023-07-31T03:43:51;20.00;17.75;11.00
80555;PMS5003;69889;55.040;73.076;2023-07-31T03:46:18;18.75;17.75;12.00
80555;PMS5003;69889;55.040;73.076;2023-07-31T03:48:45;19.50;17.25;12.50
80555;PMS5003;69889;55.040;73.076;2023-07-31T03:51:12;20.00;18.00;12.00
80555;PMS5003;69889;55.040;73.076;2023-07-31T03:53:38;19.75;17.75;11.00
80555;PMS5003;69889;55.040;73.076;2023-07-31T03:56:05;19.50;18.00;12.00
80555;PMS5003;69889;55.040;73.076;2023-07-31T03:58:31;17.75;16.00;11.00
80555;PMS5003;69889;55.040;73.076;2023-07-31T04:00:59;19.00;17.00;11.00
80555;PMS5003;69889;55.040;73.076;2023-07-31T04:03:25;19.25;17.00;11.00
80555;PMS5003;69889;55.040;73.076;2023-07-31T04:05:53;19.00;16.00;9.75
80555;PMS5003;69889;55.040;73.076;2023-07-31T04:08:20;19.00;18.00;11.00
80555;PMS5003;69889;55.040;73.076;2023-07-31T04:10:47;18.00;16.00;10.00
80555;PMS5003;69889;55.040;73.076;2023-07-31T04:13:13;19.00;18.00;11.00
80555;PMS5003;69889;55.040;73.076;2023-07-31T04:15:40;19.00;18.00;11.00
80555;PMS5003;69889;55.040;73.076;2023-07-31T04:18:07;16.25;15.00;11.00
80555;PMS5003;69889;55.040;73.076;2023-07-31T04:20:33;18.00;17.00;10.00
80555;PMS5003;69889;55.040;73.076;2023-07-31T04:23:00;15.50;14.50;10.00
80555;PMS5003;69889;55.040;73.076;2023-07-31T04:25:27;17.00;16.00;11.00
80555;PMS5003;69889;55.040;73.076;2023-07-31T04:27:53;19.00;18.00;12.00
80555;PMS5003;69889;55.040;73.076;2023-07-31T04:30:20;19.00;17.00;11.00
80555;PMS5003;69889;55.040;73.076;2023-07-31T04:32:46;18.00;16.75;11.00
80555;PMS5003;69889;55.040;73.076;2023-07-31T04:35:13;19.00;18.00;12.00
80555;PMS5003;69889;55.040;73.076;2023-07-31T04:37:39;18.00;16.00;10.25
80555;PMS5003;69889;55.040;73.076;2023-07-31T04:40:07;20.00;18.00;11.00
80555;PMS5003;69889;55.040;73.076;2023-07-31T04:42:34;18.00;17.00;11.00
80555;PMS5003;69889;55.040;73.076;2023-07-31T04:45:00;17.75;17.00;11.00
80555;PMS5003;69889;55.040;73.076;2023-07-31T04:47:27;18.00;17.00;10.00
80555;PMS5003;69889;55.040;73.076;2023-07-31T04:49:54;16.50;15.50;10.25
80555;PMS5003;69889;55.040;73.076;2023-07-31T04:52:20;19.00;17.25;11.50
80555;PMS5003;69889;55.040;73.076;2023-07-31T04:54:47;20.00;18.75;12.00
80555;PMS5003;69889;55.040;73.076;2023-07-31T04:57:13;18.00;17.00;11.25
80555;PMS5003;69889;55.040;73.076;2023-07-31T04:59:40;17.00;14.25;9.00
80555;PMS5003;69889;55.040;73.076;2023-07-31T05:02:08;15.00;14.00;9.25
80555;PMS5003;69889;55.040;73.076;2023-07-31T05:04:34;18.00;15.75;10.50
80555;PMS5003;69889;55.040;73.076;2023-07-31T05:07:01;16.00;15.00;10.00
80555;PMS5003;69889;55.040;73.076;2023-07-31T05:09:28;16.50;14.75;10.00
80555;PMS5003;69889;55.040;73.076;2023-07-31T05:11:54;16.00;15.00;9.00
80555;PMS5003;69889;55.040;73.076;2023-07-31T05:14:21;15.75;14.75;10.00
80555;PMS5003;69889;55.040;73.076;2023-07-31T05:16:48;18.00;16.00;10.25
80555;PMS5003;69889;55.040;73.076;2023-07-31T05:19:14;18.00;16.50;11.00
80555;PMS5003;69889;55.040;73.076;2023-07-31T05:21:41;16.25;15.00;10.00
80555;PMS5003;69889;55.040;73.076;2023-07-31T05:24:07;14.25;13.00;8.25
80555;PMS5003;69889;55.040;73.076;2023-07-31T05:26:34;19.00;17.00;10.75
80555;PMS5003;69889;55.040;73.076;2023-07-31T05:29:05;18.00;17.00;11.00
80555;PMS5003;69889;55.040;73.076;2023-07-31T05:31:31;17.00;16.00;10.00
80555;PMS5003;69889;55.040;73.076;2023-07-31T05:33:58;16.50;15.00;10.00
80555;PMS5003;69889;55.040;73.076;2023-07-31T05:36:25;16.00;15.00;10.50
80555;PMS5003;69889;55.040;73.076;2023-07-31T05:38:51;16.50;15.75;10.00
80555;PMS5003;69889;55.040;73.076;2023-07-31T05:41:18;16.00;14.00;10.00
80555;PMS5003;69889;55.040;73.076;2023-07-31T05:43:45;16.50;15.00;11.00
80555;PMS5003;69889;55.040;73.076;2023-07-31T05:46:12;21.25;19.00;11.00
80555;PMS5003;69889;55.040;73.076;2023-07-31T05:48:39;15.25;14.00;9.00
80555;PMS5003;69889;55.040;73.076;2023-07-31T05:51:05;16.00;15.00;11.00
80555;PMS5003;69889;55.040;73.076;2023-07-31T05:53:33;16.00;15.00;9.00
80555;PMS5003;69889;55.040;73.076;2023-07-31T05:55:59;17.00;15.50;10.00
80555;PMS5003;69889;55.040;73.076;2023-07-31T05:58:26;17.50;16.00;11.50
80555;PMS5003;69889;55.040;73.076;2023-07-31T06:00:53;15.75;13.75;9.00
80555;PMS5003;69889;55.040;73.076;2023-07-31T06:03:19;15.00;14.00;10.00
80555;PMS5003;69889;55.040;73.076;2023-07-31T06:05:46;14.25;12.75;8.75
80555;PMS5003;69889;55.040;73.076;2023-07-31T06:08:13;13.75;13.00;9.00
80555;PMS5003;69889;55.040;73.076;2023-07-31T06:10:39;15.00;13.75;9.00
80555;PMS5003;69889;55.040;73.076;2023-07-31T06:13:06;17.00;15.00;9.00
80555;PMS5003;69889;55.040;73.076;2023-07-31T06:15:33;16.00;14.00;9.00
80555;PMS5003;69889;55.040;73.076;2023-07-31T06:18:00;14.25;13.50;10.00
80555;PMS5003;69889;55.040;73.076;2023-07-31T06:20:28;14.00;12.25;9.00
80555;PMS5003;69889;55.040;73.076;2023-07-31T06:22:54;14.00;13.00;9.00
80555;PMS5003;69889;55.040;73.076;2023-07-31T06:25:21;14.00;13.00;9.00
80555;PMS5003;69889;55.040;73.076;2023-07-31T06:27:47;18.00;16.75;11.00
80555;PMS5003;69889;55.040;73.076;2023-07-31T06:30:14;18.00;16.00;10.00
80555;PMS5003;69889;55.040;73.076;2023-07-31T06:32:40;16.00;14.00;9.00
80555;PMS5003;69889;55.040;73.076;2023-07-31T06:35:07;15.00;14.00;9.00
80555;PMS5003;69889;55.040;73.076;2023-07-31T06:37:34;14.75;13.00;9.00
80555;PMS5003;69889;55.040;73.076;2023-07-31T06:40:00;16.00;14.00;8.00
80555;PMS5003;69889;55.040;73.076;2023-07-31T06:42:27;16.00;15.00;9.00
80555;PMS5003;69889;55.040;73.076;2023-07-31T06:44:54;16.00;15.00;10.00
80555;PMS5003;69889;55.040;73.076;2023-07-31T06:47:20;14.50;13.00;8.00
80555;PMS5003;69889;55.040;73.076;2023-07-31T06:49:47;14.00;13.00;10.00
80555;PMS5003;69889;55.040;73.076;2023-07-31T06:52:13;13.25;13.00;8.75
80555;PMS5003;69889;55.040;73.076;2023-07-31T06:54:40;14.00;13.00;9.00
80555;PMS5003;69889;55.040;73.076;2023-07-31T06:57:06;14.00;13.00;9.00
80555;PMS5003;69889;55.040;73.076;2023-07-31T06:59:33;13.00;12.00;8.00
80555;PMS5003;69889;55.040;73.076;2023-07-31T07:01:59;15.00;14.00;9.00
80555;PMS5003;69889;55.040;73.076;2023-07-31T07:04:26;16.00;14.50;9.00
80555;PMS5003;69889;55.040;73.076;2023-07-31T07:07:01;13.50;12.75;8.50
80555;PMS5003;69889;55.040;73.076;2023-07-31T07:09:27;12.00;11.00;7.25
80555;PMS5003;69889;55.040;73.076;2023-07-31T07:11:54;13.00;12.00;7.75
80555;PMS5003;69889;55.040;73.076;2023-07-31T07:14:20;14.00;13.00;8.00
80555;PMS5003;69889;55.040;73.076;2023-07-31T07:16:50;12.00;10.75;7.00
80555;PMS5003;69889;55.040;73.076;2023-07-31T07:19:17;12.00;12.00;8.00
80555;PMS5003;69889;55.040;73.076;2023-07-31T07:21:44;14.00;12.00;8.00
80555;PMS5003;69889;55.040;73.076;2023-07-31T07:24:11;13.00;12.00;8.00
80555;PMS5003;69889;55.040;73.076;2023-07-31T07:26:39;12.75;12.25;8.00
80555;PMS5003;69889;55.040;73.076;2023-07-31T07:29:05;15.00;13.50;9.00
80555;PMS5003;69889;55.040;73.076;2023-07-31T07:31:34;14.00;12.50;9.00
80555;PMS5003;69889;55.040;73.076;2023-07-31T07:34:00;16.00;14.00;9.00
80555;PMS5003;69889;55.040;73.076;2023-07-31T07:36:28;13.00;12.00;8.00
80555;PMS5003;69889;55.040;73.076;2023-07-31T07:38:55;15.00;13.00;8.25
80555;PMS5003;69889;55.040;73.076;2023-07-31T07:41:22;15.00;13.75;9.00
80555;PMS5003;69889;55.040;73.076;2023-07-31T07:43:49;15.00;14.00;9.00
80555;PMS5003;69889;55.040;73.076;2023-07-31T07:46:15;13.00;12.50;9.00
80555;PMS5003;69889;55.040;73.076;2023-07-31T07:48:41;14.00;13.00;9.00
80555;PMS5003;69889;55.040;73.076;2023-07-31T07:51:08;16.25;14.00;8.75
80555;PMS5003;69889;55.040;73.076;2023-07-31T07:53:35;15.00;13.00;8.75
80555;PMS5003;69889;55.040;73.076;2023-07-31T07:56:02;14.00;12.75;8.00
80555;PMS5003;69889;55.040;73.076;2023-07-31T07:58:28;16.25;13.75;9.00
80555;PMS5003;69889;55.040;73.076;2023-07-31T08:00:55;13.00;13.00;10.00
80555;PMS5003;69889;55.040;73.076;2023-07-31T08:03:22;14.00;13.00;9.00
80555;PMS5003;69889;55.040;73.076;2023-07-31T08:05:48;14.00;13.00;9.50
80555;PMS5003;69889;55.040;73.076;2023-07-31T08:08:15;14.00;13.00;9.00
80555;PMS5003;69889;55.040;73.076;2023-07-31T08:10:44;12.50;11.75;8.75
80555;PMS5003;69889;55.040;73.076;2023-07-31T08:13:11;13.25;12.50;8.00
80555;PMS5003;69889;55.040;73.076;2023-07-31T08:15:37;15.50;14.00;9.00
80555;PMS5003;69889;55.040;73.076;2023-07-31T08:18:05;11.50;10.75;7.25
80555;PMS5003;69889;55.040;73.076;2023-07-31T08:20:31;12.25;11.75;8.00
80555;PMS5003;69889;55.040;73.076;2023-07-31T08:22:58;15.25;14.00;9.00
80555;PMS5003;69889;55.040;73.076;2023-07-31T08:25:24;15.00;13.50;8.50
80555;PMS5003;69889;55.040;73.076;2023-07-31T08:27:51;16.50;15.00;10.75
80555;PMS5003;69889;55.040;73.076;2023-07-31T08:30:19;14.25;13.00;8.00
80555;PMS5003;69889;55.040;73.076;2023-07-31T08:32:45;18.00;16.00;9.00
80555;PMS5003;69889;55.040;73.076;2023-07-31T08:35:12;13.00;12.00;9.00
80555;PMS5003;69889;55.040;73.076;2023-07-31T08:37:39;15.00;13.75;9.00
80555;PMS5003;69889;55.040;73.076;2023-07-31T08:40:07;14.25;13.00;8.00
80555;PMS5003;69889;55.040;73.076;2023-07-31T08:42:34;14.00;13.00;9.00
80555;PMS5003;69889;55.040;73.076;2023-07-31T08:45:09;14.00;12.25;9.00
80555;PMS5003;69889;55.040;73.076;2023-07-31T08:47:36;13.00;12.00;9.00
80555;PMS5003;69889;55.040;73.076;2023-07-31T08:50:03;14.00;13.00;9.00
80555;PMS5003;69889;55.040;73.076;2023-07-31T08:52:31;15.00;13.25;8.25
80555;PMS5003;69889;55.040;73.076;2023-07-31T08:54:57;13.50;12.50;8.75
80555;PMS5003;69889;55.040;73.076;2023-07-31T08:57:25;13.00;12.00;8.50
80555;PMS5003;69889;55.040;73.076;2023-07-31T08:59:52;13.75;13.00;9.00
80555;PMS5003;69889;55.040;73.076;2023-07-31T09:02:38;12.00;11.00;8.00
80555;PMS5003;69889;55.040;73.076;2023-07-31T09:05:07;14.00;12.00;8.00
80555;PMS5003;69889;55.040;73.076;2023-07-31T09:07:34;14.00;13.00;8.00
80555;PMS5003;69889;55.040;73.076;2023-07-31T09:10:03;13.00;12.00;8.25
80555;PMS5003;69889;55.040;73.076;2023-07-31T09:12:30;15.00;13.00;9.00
80555;PMS5003;69889;55.040;73.076;2023-07-31T09:14:57;13.00;11.75;8.00
80555;PMS5003;69889;55.040;73.076;2023-07-31T09:17:30;13.00;12.25;8.00
80555;PMS5003;69889;55.040;73.076;2023-07-31T09:19:57;14.00;13.00;8.00
80555;PMS5003;69889;55.040;73.076;2023-07-31T09:22:33;13.00;12.00;8.00
80555;PMS5003;69889;55.040;73.076;2023-07-31T09:25:16;14.75;13.00;8.50
80555;PMS5003;69889;55.040;73.076;2023-07-31T09:30:25;16.00;14.50;9.00
80555;PMS5003;69889;55.040;73.076;2023-07-31T09:32:59;15.00;13.00;8.25
80555;PMS5003;69889;55.040;73.076;2023-07-31T09:35:30;16.75;15.00;10.25
80555;PMS5003;69889;55.040;73.076;2023-07-31T09:37:59;14.75;13.00;9.00
80555;PMS5003;69889;55.040;73.076;2023-07-31T09:40:26;15.00;14.00;9.00
80555;PMS5003;69889;55.040;73.076;2023-07-31T09:42:55;14.00;12.00;8.00
80555;PMS5003;69889;55.040;73.076;2023-07-31T09:45:23;17.00;14.75;10.00
80555;PMS5003;69889;55.040;73.076;2023-07-31T09:47:50;15.00;13.00;9.00
80555;PMS5003;69889;55.040;73.076;2023-07-31T09:50:16;13.00;12.50;8.00
80555;PMS5003;69889;55.040;73.076;2023-07-31T09:52:43;14.50;13.75;9.00
80555;PMS5003;69889;55.040;73.076;2023-07-31T09:55:10;13.00;11.50;8.00
80555;PMS5003;69889;55.040;73.076;2023-07-31T09:57:40;15.00;14.00;9.00
80555;PMS5003;69889;55.040;73.076;2023-07-31T10:00:11;14.00;13.00;9.00
80555;PMS5003;69889;55.040;73.076;2023-07-31T10:02:39;14.00;12.00;8.00
80555;PMS5003;69889;55.040;73.076;2023-07-31T10:05:06;13.00;12.00;7.00
80555;PMS5003;69889;55.040;73.076;2023-07-31T10:07:38;14.00;13.00;8.00
80555;PMS5003;69889;55.040;73.076;2023-07-31T10:10:06;12.00;11.00;7.00
80555;PMS5003;69889;55.040;73.076;2023-07-31T10:12:33;11.00;10.00;7.00
80555;PMS5003;69889;55.040;73.076;2023-07-31T10:15:01;13.00;12.00;8.00
80555;PMS5003;69889;55.040;73.076;2023-07-31T10:17:29;12.75;11.50;8.00
80555;PMS5003;69889;55.040;73.076;2023-07-31T10:19:59;12.25;12.00;8.00
80555;PMS5003;69889;55.040;73.076;2023-07-31T10:22:27;12.75;12.00;8.00
80555;PMS5003;69889;55.040;73.076;2023-07-31T10:24:57;12.00;11.00;7.00
80555;PMS5003;69889;55.040;73.076;2023-07-31T10:27:24;11.00;10.00;7.00
80555;PMS5003;69889;55.040;73.076;2023-07-31T10:29:51;13.00;12.00;8.00
80555;PMS5003;69889;55.040;73.076;2023-07-31T10:32:19;11.75;11.00;7.00
80555;PMS5003;69889;55.040;73.076;2023-07-31T10:34:47;10.00;9.50;6.25
80555;PMS5003;69889;55.040;73.076;2023-07-31T10:42:30;13.00;12.00;7.00
80555;PMS5003;69889;55.040;73.076;2023-07-31T10:44:58;11.00;10.50;7.00
80555;PMS5003;69889;55.040;73.076;2023-07-31T10:47:25;10.00;10.00;7.00
80555;PMS5003;69889;55.040;73.076;2023-07-31T10:49:52;11.75;10.00;7.00
80555;PMS5003;69889;55.040;73.076;2023-07-31T10:52:19;9.00;9.00;6.00
80555;PMS5003;69889;55.040;73.076;2023-07-31T10:55:12;11.00;10.00;7.00
80555;PMS5003;69889;55.040;73.076;2023-07-31T10:57:35;10.00;10.00;7.00
80555;PMS5003;69889;55.040;73.076;2023-07-31T11:05:40;10.00;9.00;6.00
80555;PMS5003;69889;55.040;73.076;2023-07-31T11:08:16;10.00;9.00;6.00
80555;PMS5003;69889;55.040;73.076;2023-07-31T11:10:44;11.00;10.00;7.00
80555;PMS5003;69889;55.040;73.076;2023-07-31T11:13:11;12.00;11.00;7.00
80555;PMS5003;69889;55.040;73.076;2023-07-31T11:15:37;11.25;10.00;7.00
80555;PMS5003;69889;55.040;73.076;2023-07-31T11:18:04;11.50;11.00;7.00
80555;PMS5003;69889;55.040;73.076;2023-07-31T11:20:33;11.00;10.00;6.50
80555;PMS5003;69889;55.040;73.076;2023-07-31T11:23:01;10.00;9.00;6.00
80555;PMS5003;69889;55.040;73.076;2023-07-31T11:25:29;11.00;11.00;7.00
80555;PMS5003;69889;55.040;73.076;2023-07-31T11:27:55;11.00;10.00;7.00
80555;PMS5003;69889;55.040;73.076;2023-07-31T11:30:22;11.00;10.00;7.00
80555;PMS5003;69889;55.040;73.076;2023-07-31T11:32:49;12.00;10.50;7.00
80555;PMS5003;69889;55.040;73.076;2023-07-31T11:35:17;11.00;9.00;6.50
80555;PMS5003;69889;55.040;73.076;2023-07-31T11:37:44;10.50;10.00;6.00
80555;PMS5003;69889;55.040;73.076;2023-07-31T11:40:12;11.00;10.50;7.00
80555;PMS5003;69889;55.040;73.076;2023-07-31T11:42:39;12.50;11.00;6.00
80555;PMS5003;69889;55.040;73.076;2023-07-31T11:45:07;11.00;11.00;7.00
80555;PMS5003;69889;55.040;73.076;2023-07-31T11:47:36;11.00;10.00;6.25
80555;PMS5003;69889;55.040;73.076;2023-07-31T11:50:03;9.75;9.50;6.25
80555;PMS5003;69889;55.040;73.076;2023-07-31T11:52:32;12.00;11.00;7.00
80555;PMS5003;69889;55.040;73.076;2023-07-31T11:55:02;10.25;9.50;7.00
80555;PMS5003;69889;55.040;73.076;2023-07-31T11:57:28;11.50;10.00;6.25
80555;PMS5003;69889;55.040;73.076;2023-07-31T11:59:55;10.00;9.50;6.00
80555;PMS5003;69889;55.040;73.076;2023-07-31T12:02:22;10.00;9.25;6.25
80555;PMS5003;69889;55.040;73.076;2023-07-31T12:04:49;11.00;10.00;6.00
80555;PMS5003;69889;55.040;73.076;2023-07-31T12:07:20;9.75;9.00;6.00
80555;PMS5003;69889;55.040;73.076;2023-07-31T12:09:51;12.50;11.25;8.00
80555;PMS5003;69889;55.040;73.076;2023-07-31T12:12:24;10.00;9.00;6.00
80555;PMS5003;69889;55.040;73.076;2023-07-31T12:14:51;12.00;11.00;7.00
80555;PMS5003;69889;55.040;73.076;2023-07-31T12:17:19;12.00;11.00;7.75
80555;PMS5003;69889;55.040;73.076;2023-07-31T12:19:48;11.50;10.50;7.00
80555;PMS5003;69889;55.040;73.076;2023-07-31T12:22:15;12.00;11.00;8.00
80555;PMS5003;69889;55.040;73.076;2023-07-31T12:24:43;10.75;10.00;7.00
80555;PMS5003;69889;55.040;73.076;2023-07-31T12:27:13;12.00;11.00;8.00
80555;PMS5003;69889;55.040;73.076;2023-07-31T12:29:41;11.00;10.00;7.00
80555;PMS5003;69889;55.040;73.076;2023-07-31T12:32:24;9.00;9.00;6.00
80555;PMS5003;69889;55.040;73.076;2023-07-31T12:34:53;10.00;9.25;7.00
80555;PMS5003;69889;55.040;73.076;2023-07-31T12:37:23;10.00;9.00;6.00
80555;PMS5003;69889;55.040;73.076;2023-07-31T12:39:49;9.25;9.00;7.00
80555;PMS5003;69889;55.040;73.076;2023-07-31T12:42:17;11.00;10.00;6.00
80555;PMS5003;69889;55.040;73.076;2023-07-31T12:44:43;10.00;9.50;6.75
80555;PMS5003;69889;55.040;73.076;2023-07-31T12:47:10;11.00;10.00;7.00
80555;PMS5003;69889;55.040;73.076;2023-07-31T12:49:36;10.00;8.25;6.00
80555;PMS5003;69889;55.040;73.076;2023-07-31T12:52:03;8.00;7.50;5.00
80555;PMS5003;69889;55.040;73.076;2023-07-31T12:54:30;11.00;10.00;6.00
80555;PMS5003;69889;55.040;73.076;2023-07-31T12:56:56;11.00;10.00;6.00
80555;PMS5003;69889;55.040;73.076;2023-07-31T12:59:23;10.00;9.50;6.25
80555;PMS5003;69889;55.040;73.076;2023-07-31T13:01:49;8.00;8.00;5.00
80555;PMS5003;69889;55.040;73.076;2023-07-31T13:04:16;11.00;10.00;7.00
80555;PMS5003;69889;55.040;73.076;2023-07-31T13:06:42;10.00;9.00;7.00
80555;PMS5003;69889;55.040;73.076;2023-07-31T13:09:09;11.00;11.00;7.00
80555;PMS5003;69889;55.040;73.076;2023-07-31T13:11:35;10.00;9.00;6.00
80555;PMS5003;69889;55.040;73.076;2023-07-31T13:14:02;12.00;11.00;7.00
80555;PMS5003;69889;55.040;73.076;2023-07-31T13:16:29;11.00;10.00;7.00
80555;PMS5003;69889;55.040;73.076;2023-07-31T13:18:55;11.00;10.00;7.00
80555;PMS5003;69889;55.040;73.076;2023-07-31T13:21:22;11.00;11.00;7.00
80555;PMS5003;69889;55.040;73.076;2023-07-31T13:23:48;12.00;11.00;7.00
80555;PMS5003;69889;55.040;73.076;2023-07-31T13:26:15;11.00;10.00;7.25
80555;PMS5003;69889;55.040;73.076;2023-07-31T13:28:41;11.25;11.00;7.00
80555;PMS5003;69889;55.040;73.076;2023-07-31T13:31:08;12.00;11.00;7.00
80555;PMS5003;69889;55.040;73.076;2023-07-31T13:33:34;11.00;11.00;8.00
80555;PMS5003;69889;55.040;73.076;2023-07-31T13:36:01;12.75;11.25;7.25
80555;PMS5003;69889;55.040;73.076;2023-07-31T13:38:28;13.00;11.50;7.00
80555;PMS5003;69889;55.040;73.076;2023-07-31T13:40:54;12.25;11.25;7.00
80555;PMS5003;69889;55.040;73.076;2023-07-31T13:43:22;11.00;10.25;7.00
80555;PMS5003;69889;55.040;73.076;2023-07-31T13:45:49;13.00;12.00;7.00
80555;PMS5003;69889;55.040;73.076;2023-07-31T13:48:15;13.00;11.25;7.00
80555;PMS5003;69889;55.040;73.076;2023-07-31T13:50:42;14.25;12.50;8.00
80555;PMS5003;69889;55.040;73.076;2023-07-31T13:53:08;12.00;11.00;7.00
80555;PMS5003;69889;55.040;73.076;2023-07-31T13:55:36;13.00;12.00;8.00
80555;PMS5003;69889;55.040;73.076;2023-07-31T13:58:02;12.50;12.00;8.00
80555;PMS5003;69889;55.040;73.076;2023-07-31T14:00:29;13.00;12.00;8.00
80555;PMS5003;69889;55.040;73.076;2023-07-31T14:02:55;12.00;11.00;8.00
80555;PMS5003;69889;55.040;73.076;2023-07-31T14:05:23;13.00;11.00;7.00